createdAt,value
2018-12-11T00:01:55.615Z,8.33
2018-12-11T00:04:32.047Z,4.97
2018-12-11T00:07:03.576Z,5.03
2018-12-11T00:09:46.306Z,4.87
2018-12-11T00:12:18.103Z,5.20
2018-12-11T00:14:49.808Z,6.30
2018-12-11T00:17:20.119Z,6.28
2018-12-11T00:19:49.805Z,5.92
2018-12-11T00:22:21.683Z,6.15
2018-12-11T00:24:53.791Z,6.15
2018-12-11T00:27:24.492Z,5.92
2018-12-11T00:29:56.292Z,4.95
2018-12-11T00:32:30.588Z,4.40
2018-12-11T00:35:01.858Z,4.85
2018-12-11T00:37:31.898Z,5.65
2018-12-11T00:40:06.307Z,6.70
2018-12-11T00:42:44.833Z,6.33
2018-12-11T00:45:16.327Z,6.37
2018-12-11T00:47:50.548Z,6.72
2018-12-11T00:53:49.958Z,6.70
2018-12-11T00:59:17.318Z,5.28
2018-12-11T01:01:45.626Z,4.78
2018-12-11T01:04:17.511Z,5.65
2018-12-11T01:06:45.780Z,5.25
2018-12-11T01:09:13.936Z,6.10
2018-12-11T01:11:42.355Z,5.72
2018-12-11T01:14:10.553Z,8.03
2018-12-11T01:16:38.823Z,7.47
2018-12-11T01:19:07.012Z,8.93
2018-12-11T01:21:35.290Z,7.25
2018-12-11T01:24:03.915Z,9.83
2018-12-11T01:26:32.282Z,7.22
2018-12-11T01:29:00.518Z,7.83
2018-12-11T01:31:29.616Z,7.92
2018-12-11T01:33:57.828Z,7.90
2018-12-11T01:36:26.799Z,7.25
2018-12-11T01:39:08.469Z,6.83
2018-12-11T01:41:36.827Z,5.87
2018-12-11T01:44:05.200Z,6.10
2018-12-11T01:46:33.447Z,5.33
2018-12-11T01:49:01.596Z,5.95
2018-12-11T01:51:29.843Z,5.22
2018-12-11T01:54:01.606Z,5.90
2018-12-11T01:59:30.236Z,5.75
2018-12-11T02:01:58.637Z,5.97
2018-12-11T02:04:36.976Z,5.85
2018-12-11T02:07:05.211Z,5.97
2018-12-11T02:12:40.738Z,5.25
2018-12-11T02:15:18.437Z,4.25
2018-12-11T02:17:46.821Z,5.58
2018-12-11T02:20:20.761Z,7.00
2018-12-11T02:22:54.400Z,6.60
2018-12-11T02:25:25.955Z,5.70
2018-12-11T02:27:56.474Z,4.00
2018-12-11T02:30:32.323Z,4.08
2018-12-11T02:33:07.245Z,4.33
2018-12-11T02:35:51.516Z,5.42
2018-12-11T02:38:25.074Z,4.05
2018-12-11T02:41:06.947Z,4.45
2018-12-11T02:49:46.365Z,5.37
2018-12-11T02:52:15.926Z,5.72
2018-12-11T02:55:02.797Z,5.80
2018-12-11T03:01:47.684Z,6.60
2018-12-11T03:07:19.504Z,5.00
2018-12-11T03:09:51.803Z,5.17
2018-12-11T03:17:22.746Z,3.50
2018-12-11T03:20:03.849Z,3.50
2018-12-11T03:22:37.606Z,4.78
2018-12-11T03:25:09.028Z,2.92
2018-12-11T03:27:37.165Z,3.35
2018-12-11T03:30:08.620Z,4.60
2018-12-11T03:32:55.457Z,6.50
2018-12-11T03:38:23.065Z,5.58
2018-12-11T03:40:51.439Z,6.22
2018-12-11T03:43:29.719Z,6.60
2018-12-11T03:46:10.311Z,6.15
2018-12-11T03:48:46.861Z,6.42
2018-12-11T03:51:25.293Z,6.42
2018-12-11T03:53:57.554Z,6.22
2018-12-11T03:56:26.135Z,6.85
2018-12-11T03:58:54.760Z,5.60
2018-12-11T04:01:29.959Z,7.12
2018-12-11T04:03:58.571Z,7.40
2018-12-11T04:06:29.672Z,6.92
2018-12-11T04:09:07.962Z,7.35
2018-12-11T04:11:39.414Z,6.95
2018-12-11T04:14:13.614Z,7.87
2018-12-11T04:16:49.061Z,6.30
2018-12-11T04:19:23.509Z,6.85
2018-12-11T04:21:54.254Z,5.10
2018-12-11T04:24:23.492Z,6.90
2018-12-11T04:26:52.442Z,6.55
2018-12-11T04:29:21.502Z,5.70
2018-12-11T04:31:54.091Z,7.37
2018-12-11T04:34:35.304Z,6.35
2018-12-11T04:37:13.804Z,5.58
2018-12-11T04:39:49.135Z,6.10
2018-12-11T04:42:18.785Z,6.37
2018-12-11T04:44:48.229Z,5.27
2018-12-11T04:47:32.976Z,4.80
2018-12-11T04:50:14.846Z,2.12
2018-12-11T04:52:46.444Z,2.55
2018-12-11T04:55:27.759Z,2.55
2018-12-11T04:57:56.311Z,2.00
2018-12-11T05:00:24.702Z,1.77
2018-12-11T05:02:54.055Z,1.77
2018-12-11T05:05:25.587Z,1.82
2018-12-11T05:07:54.333Z,3.25
2018-12-11T05:10:22.951Z,2.98
2018-12-11T05:13:03.963Z,4.83
2018-12-11T05:15:39.346Z,6.12
2018-12-11T05:18:07.856Z,5.83
2018-12-11T05:20:36.299Z,5.58
2018-12-11T05:23:04.921Z,6.00
2018-12-11T05:25:36.607Z,5.35
2018-12-11T05:28:08.464Z,5.47
2018-12-11T05:30:36.738Z,5.62
2018-12-11T05:33:08.884Z,6.25
2018-12-11T05:35:40.744Z,5.50
2018-12-11T05:38:13.150Z,6.37
2018-12-11T05:40:47.303Z,6.10
2018-12-11T05:43:26.047Z,7.37
2018-12-11T05:45:58.338Z,7.35
2018-12-11T05:48:26.759Z,6.30
2018-12-11T05:50:55.371Z,6.65
2018-12-11T05:53:24.097Z,6.45
2018-12-11T05:55:52.631Z,7.08
2018-12-11T05:58:21.017Z,6.90
2018-12-11T06:00:49.525Z,7.67
2018-12-11T06:03:38.490Z,7.10
2018-12-11T06:06:10.290Z,7.35
2018-12-11T06:08:42.818Z,6.53
2018-12-11T06:14:06.172Z,7.08
2018-12-11T06:19:30.345Z,6.47
2018-12-11T06:24:51.448Z,7.10
2018-12-11T06:27:42.733Z,7.55
2018-12-11T06:30:10.963Z,7.33
2018-12-11T06:32:39.131Z,7.20
2018-12-11T06:35:07.515Z,7.20
2018-12-11T06:37:35.743Z,6.97
2018-12-11T06:40:04.273Z,6.55
2018-12-11T06:42:32.398Z,8.48
2018-12-11T06:45:00.601Z,6.83
2018-12-11T06:47:29.505Z,5.87
2018-12-11T06:49:57.696Z,4.70
2018-12-11T06:52:26.102Z,5.28
2018-12-11T06:54:54.227Z,4.40
2018-12-11T06:57:22.367Z,3.58
2018-12-11T06:59:50.495Z,3.42
2018-12-11T07:02:18.776Z,5.67
2018-12-11T07:04:46.967Z,6.10
2018-12-11T07:07:15.248Z,6.20
2018-12-11T07:09:43.433Z,6.05
2018-12-11T07:12:11.643Z,6.35
2018-12-11T07:14:39.831Z,7.37
2018-12-11T07:17:07.964Z,7.87
2018-12-11T07:19:36.159Z,8.48
2018-12-11T07:22:04.394Z,7.20
2018-12-11T07:24:32.651Z,7.15
2018-12-11T07:27:00.787Z,8.68
2018-12-11T07:29:29.043Z,12.20
2018-12-11T07:31:57.176Z,10.23
2018-12-11T07:34:25.303Z,10.23
2018-12-11T07:36:53.698Z,9.83
2018-12-11T07:39:21.833Z,8.45
2018-12-11T07:41:49.971Z,9.80
2018-12-11T07:44:18.234Z,9.10
2018-12-11T07:46:46.500Z,9.23
2018-12-11T07:49:14.702Z,8.50
2018-12-11T07:51:43.013Z,8.90
2018-12-11T07:54:11.139Z,8.50
2018-12-11T07:56:39.259Z,9.73
2018-12-11T07:59:07.450Z,9.63
2018-12-11T08:01:36.102Z,9.30
2018-12-11T08:04:05.196Z,8.98
2018-12-11T08:06:33.370Z,10.08
2018-12-11T08:09:01.570Z,9.88
2018-12-11T08:11:29.778Z,10.05
2018-12-11T08:13:57.902Z,12.43
2018-12-11T08:16:26.327Z,12.10
2018-12-11T08:18:54.842Z,9.30
2018-12-11T08:21:23.038Z,8.60
2018-12-11T08:23:51.300Z,9.53
2018-12-11T08:26:19.483Z,9.37
2018-12-11T08:28:47.689Z,11.17
2018-12-11T08:31:15.887Z,11.05
2018-12-11T08:33:44.081Z,7.72
2018-12-11T08:36:12.210Z,8.60
2018-12-11T08:38:40.386Z,9.28
2018-12-11T08:41:08.646Z,14.33
2018-12-11T08:43:36.835Z,14.10
2018-12-11T08:46:05.022Z,19.45
2018-12-11T08:48:33.172Z,22.13
2018-12-11T08:51:01.270Z,10.55
2018-12-11T08:53:30.198Z,8.70
2018-12-11T08:55:58.335Z,9.70
2018-12-11T08:58:26.427Z,9.57
2018-12-11T09:00:54.618Z,19.40
2018-12-11T09:03:22.724Z,19.48
2018-12-11T09:05:50.922Z,12.13
2018-12-11T09:08:19.174Z,11.87
2018-12-11T09:10:47.435Z,9.93
2018-12-11T09:13:15.536Z,12.05
2018-12-11T09:15:43.708Z,10.27
2018-12-11T09:18:11.822Z,14.73
2018-12-11T09:20:40.074Z,11.57
2018-12-11T09:23:08.243Z,11.30
2018-12-11T09:25:36.434Z,8.50
2018-12-11T09:28:10.791Z,9.50
2018-12-11T09:30:34.719Z,10.40
2018-12-11T09:33:02.835Z,10.88
2018-12-11T09:35:31.022Z,10.72
2018-12-11T09:37:59.200Z,9.77
2018-12-11T09:40:27.358Z,9.20
2018-12-11T09:42:55.487Z,9.05
2018-12-11T09:45:23.614Z,8.80
2018-12-11T09:47:55.026Z,8.70
2018-12-11T09:50:29.134Z,8.27
2018-12-11T09:52:57.300Z,7.75
2018-12-11T09:55:25.530Z,8.13
2018-12-11T09:57:53.690Z,8.70
2018-12-11T10:00:25.803Z,8.38
2018-12-11T10:02:52.024Z,8.30
2018-12-11T10:05:20.195Z,8.38
2018-12-11T10:07:48.341Z,8.60
2018-12-11T10:10:16.506Z,7.60
2018-12-11T10:12:44.639Z,7.10
2018-12-11T10:15:13.063Z,7.17
2018-12-11T10:17:41.236Z,8.00
2018-12-11T10:20:09.628Z,7.20
2018-12-11T10:22:37.851Z,7.50
2018-12-11T10:25:06.107Z,8.03
2018-12-11T10:27:34.281Z,7.70
2018-12-11T10:30:02.567Z,6.53
2018-12-11T10:32:30.734Z,7.30
2018-12-11T10:34:58.911Z,8.27
2018-12-11T10:37:27.160Z,7.23
2018-12-11T10:39:55.946Z,8.20
2018-12-11T10:42:24.195Z,6.90
2018-12-11T10:44:52.357Z,8.17
2018-12-11T10:47:21.987Z,6.93
2018-12-11T10:49:50.242Z,6.23
2018-12-11T10:52:18.571Z,7.10
2018-12-11T10:54:46.729Z,7.23
2018-12-11T10:57:14.890Z,8.40
2018-12-11T10:59:43.036Z,6.93
2018-12-11T11:02:29.806Z,6.13
2018-12-11T11:04:58.027Z,6.10
2018-12-11T11:07:26.194Z,5.83
2018-12-11T11:09:54.366Z,6.37
2018-12-11T11:12:22.538Z,6.20
2018-12-11T11:14:50.778Z,6.23
2018-12-11T11:17:19.035Z,6.37
2018-12-11T11:25:54.635Z,6.60
2018-12-11T11:58:56.841Z,6.77
2018-12-11T12:01:28.270Z,6.50
2018-12-11T12:06:59.283Z,4.87
2018-12-11T12:09:29.362Z,6.00
2018-12-11T12:11:59.042Z,5.90
2018-12-11T12:14:30.435Z,6.80
2018-12-11T12:19:56.742Z,6.30
2018-12-11T12:25:24.466Z,6.20
2018-12-11T12:30:59.098Z,5.93
2018-12-11T12:33:30.410Z,6.23
2018-12-11T12:35:58.554Z,6.90
2018-12-11T12:38:26.706Z,6.17
2018-12-11T12:40:54.874Z,6.80
2018-12-11T12:43:29.434Z,6.13
2018-12-11T12:46:04.197Z,5.30
2018-12-11T12:48:35.890Z,7.20
2018-12-11T12:51:07.887Z,4.83
2018-12-11T12:53:38.010Z,5.73
2018-12-11T12:56:09.189Z,5.50
2018-12-11T12:58:38.682Z,5.97
2018-12-11T13:01:12.502Z,6.63
2018-12-11T13:03:44.603Z,6.20
2018-12-11T13:06:16.202Z,5.87
2018-12-11T13:11:54.079Z,5.80
2018-12-11T13:20:34.806Z,6.17
2018-12-11T13:23:07.398Z,6.50
2018-12-11T13:28:13.327Z,5.60
2018-12-11T13:34:09.710Z,5.70
2018-12-11T13:36:39.242Z,6.20
2018-12-11T13:39:11.248Z,6.73
2018-12-11T13:41:44.906Z,7.20
2018-12-11T13:44:16.670Z,6.00
2018-12-11T13:46:57.803Z,6.63
2018-12-11T13:52:14.030Z,6.40
2018-12-11T13:54:45.798Z,6.50
2018-12-11T13:57:17.084Z,6.00
2018-12-11T13:59:51.580Z,5.60
2018-12-11T14:02:22.926Z,6.60
2018-12-11T14:04:53.078Z,7.60
2018-12-11T14:07:24.562Z,8.47
2018-12-11T14:10:05.553Z,8.60
2018-12-11T14:12:43.410Z,7.23
2018-12-11T14:15:15.254Z,7.00
2018-12-11T14:17:44.559Z,6.13
2018-12-11T14:20:28.987Z,6.70
2018-12-11T14:23:00.952Z,6.73
2018-12-11T14:25:31.083Z,5.97
2018-12-11T14:28:09.906Z,6.80
2018-12-11T14:30:43.714Z,5.80
2018-12-11T14:39:10.626Z,6.70
2018-12-11T14:41:46.027Z,6.23
2018-12-11T14:44:17.474Z,6.83
2018-12-11T14:46:48.974Z,6.60
2018-12-11T14:49:20.958Z,7.20
2018-12-11T14:51:55.341Z,8.90
2018-12-11T14:54:31.299Z,6.97
2018-12-11T14:57:01.278Z,8.20
2018-12-11T14:59:34.986Z,8.47
2018-12-11T15:02:04.723Z,8.10
2018-12-11T15:04:34.623Z,6.73
2018-12-11T15:07:12.259Z,7.63
2018-12-11T15:09:48.490Z,7.20
2018-12-11T15:12:20.158Z,7.40
2018-12-11T15:14:50.253Z,5.33
2018-12-11T15:17:21.438Z,5.50
2018-12-11T15:19:52.830Z,3.70
2018-12-11T15:25:59.442Z,5.10
2018-12-11T15:28:28.927Z,4.00
2018-12-11T15:31:10.722Z,4.77
2018-12-11T15:33:44.452Z,4.93
2018-12-11T15:36:15.855Z,4.80
2018-12-11T15:38:47.998Z,4.83
2018-12-11T15:45:29.558Z,4.17
2018-12-11T15:48:05.875Z,3.53
2018-12-11T16:00:37.187Z,4.90
2018-12-11T16:06:31.209Z,6.42
2018-12-11T16:09:12.013Z,5.67
2018-12-11T16:11:54.029Z,6.93
2018-12-11T16:14:36.799Z,6.40
2018-12-11T16:20:23.991Z,6.63
2018-12-11T16:23:07.761Z,6.40
2018-12-11T16:25:50.481Z,7.33
2018-12-11T16:28:30.239Z,6.70
2018-12-11T16:31:02.255Z,7.80
2018-12-11T16:33:34.533Z,7.70
2018-12-11T16:36:07.040Z,7.90
2018-12-11T16:38:39.395Z,8.57
2018-12-11T16:41:20.107Z,8.10
2018-12-11T16:43:53.871Z,8.33
2018-12-11T16:46:25.823Z,8.10
2018-12-11T16:49:06.810Z,8.50
2018-12-11T16:51:47.217Z,8.87
2018-12-11T16:54:21.708Z,9.17
2018-12-11T16:56:53.518Z,7.10
2018-12-11T16:59:27.244Z,8.10
2018-12-11T17:01:59.226Z,8.23
2018-12-11T17:04:31.515Z,8.20
2018-12-11T17:07:03.915Z,7.47
2018-12-11T17:09:38.168Z,6.30
2018-12-11T17:12:12.830Z,6.87
2018-12-11T17:14:47.403Z,6.77
2018-12-11T17:17:28.916Z,5.90
2018-12-11T17:20:09.422Z,6.43
2018-12-11T17:22:41.571Z,6.30
2018-12-11T17:25:15.215Z,6.17
2018-12-11T17:27:53.978Z,6.00
2018-12-11T17:33:46.928Z,6.47
2018-12-11T17:36:26.965Z,6.90
2018-12-11T17:38:57.389Z,7.93
2018-12-11T17:41:27.223Z,7.87
2018-12-11T17:43:59.212Z,8.60
2018-12-11T17:46:30.324Z,9.57
2018-12-11T17:49:00.610Z,8.90
2018-12-11T17:51:37.191Z,8.57
2018-12-11T17:54:13.348Z,8.37
2018-12-11T17:59:33.765Z,8.83
2018-12-11T18:02:07.327Z,7.97
2018-12-11T18:04:42.389Z,7.73
2018-12-11T18:15:57.894Z,6.70
2018-12-11T18:24:28.282Z,6.37
2018-12-11T18:27:15.907Z,6.80
2018-12-11T18:33:00.779Z,6.37
2018-12-11T18:38:56.109Z,5.65
2018-12-11T18:44:46.968Z,6.67
2018-12-11T19:57:50.870Z,7.90
2018-12-11T20:00:22.775Z,8.80
2018-12-11T20:05:52.081Z,8.30
2018-12-11T20:33:37.486Z,8.60
2018-12-11T20:39:13.602Z,8.28
2018-12-11T20:41:52.706Z,8.43
2018-12-11T20:44:23.146Z,9.53
2018-12-11T20:47:06.902Z,9.13
2018-12-11T20:49:47.882Z,9.03
2018-12-11T21:01:07.916Z,9.00
2018-12-11T21:09:39.775Z,8.60
2018-12-11T21:12:41.787Z,8.40
2018-12-11T21:18:29.363Z,8.55
2018-12-11T21:29:19.996Z,7.25
2018-12-11T21:34:48.300Z,6.47
2018-12-11T21:37:16.486Z,6.28
2018-12-11T21:39:44.712Z,7.00
2018-12-11T21:42:12.857Z,6.78
2018-12-11T21:44:53.222Z,6.30
2018-12-11T21:47:28.743Z,6.00
2018-12-11T21:50:16.131Z,5.97
2018-12-11T21:52:54.846Z,6.20
2018-12-11T21:58:50.112Z,6.90
2018-12-11T22:04:49.840Z,9.60
2018-12-11T22:59:38.940Z,11.57
2018-12-11T23:05:13.143Z,12.75
2018-12-11T23:07:41.335Z,12.78
2018-12-11T23:10:09.583Z,12.65
2018-12-11T23:12:51.054Z,12.45
2018-12-11T23:15:22.851Z,11.10
2018-12-11T23:17:54.176Z,12.90
2018-12-11T23:20:36.667Z,13.10
2018-12-11T23:23:17.069Z,13.20
2018-12-11T23:25:50.784Z,12.80
2018-12-11T23:28:30.551Z,13.80
2018-12-11T23:31:05.175Z,12.13
2018-12-11T23:36:40.003Z,12.82
2018-12-11T23:39:14.071Z,14.45
2018-12-11T23:41:52.636Z,13.08
2018-12-11T23:44:24.508Z,16.35
2018-12-11T23:46:56.607Z,15.00
2018-12-11T23:49:32.639Z,14.85
2018-12-11T23:52:10.932Z,14.43
2018-12-11T23:54:42.187Z,13.53
2018-12-11T23:57:19.068Z,12.80
2018-12-11T23:59:55.521Z,13.43
